Flight Track Log - Related Links

Times and Time Zones

All times are in EDT time to prevent confusion due to time zone crossing. See the GJS3706 flight status page for this flight to view local times or setup timezone preferences in your user account.

Time Position Orientation Groundspeed Altitude Reporting Facility
EDT Latitude Longitude Course Direction KTS MPH feet Rate Location/Type
Sun 12:08:00 PM 44.3816 -73.6304 253° West  Level FlightAware Approximate
Sun 12:09:00 PM 44.3595 -73.7502 259° West  Level FlightAware Approximate
Sun 12:10:00 PM 44.3407 -73.8822 259° West  Level FlightAware Approximate
Sun 12:11:00 PM 44.3183 -74.0129 255° West  Level FlightAware Approximate
Sun 12:12:00 PM 44.2936 -74.1429 255° West  Level FlightAware Approximate
Sun 12:13:00 PM 44.2687 -74.2727 255° West  Level FlightAware Approximate
Sun 12:14:00 PM 44.2482 -74.4039 258° West  Level FlightAware Approximate
Sun 12:15:00 PM 44.2275 -74.5351 257° West  Level FlightAware Approximate
Sun 12:16:00 PM 44.2037 -74.6651 254° West  Level FlightAware Approximate
Sun 12:17:00 PM 44.1778 -74.7944 255° West  Level FlightAware Approximate
Sun 12:18:00 PM 44.1521 -74.9236 255° West  Level FlightAware Approximate
Sun 12:19:00 PM 44.1262 -75.0528 254° West  Level FlightAware Approximate
Sun 12:19:05 PM 44.4703 -73.3564 255° West 254 292 6,000  Level Boston Center
Sun 12:20:00 PM 44.1048 -75.1833 259° West  Level FlightAware Approximate
Sun 12:20:05 PM 44.4528 -73.4581 256° West 280 322 8,600  Level Boston Center
Sun 12:21:00 PM 44.0808 -75.3130 255° West  Level FlightAware Approximate
Sun 12:21:06 PM 44.4331 -73.5650 256° West 280 322 10,900  Level Boston Center
Sun 12:22:00 PM 44.0550 -75.4420 254° West  Level FlightAware Approximate
Sun 12:22:06 PM 44.4108 -73.6869 256° West 304 350 12,500  Level Boston Center
Sun 12:23:00 PM 44.0300 -75.5713 255° West  Level FlightAware Approximate
Sun 12:23:06 PM 44.3886 -73.8056 255° West 332 382 14,200  Level Boston Center
Sun 12:24:00 PM 44.0052 -75.7006 255° West  Level FlightAware Approximate
Sun 12:24:07 PM 44.3661 -73.9356 256° West 348 400 16,500  Level Boston Center
Sun 12:25:05 PM 44.3414 -74.0686 255° West 353 406 18,200 1,765 Climbing Boston Center
Sun 12:26:06 PM 44.3142 -74.2186 256° West 353 406 20,000 1,664 Climbing Boston Center
Sun 12:27:04 PM 44.2850 -74.3600 254° West 369 425 21,500 1,525 Climbing Boston Center
Sun 12:28:04 PM 44.2594 -74.5069 256° West 376 433 23,000 1,488 Climbing Boston Center
Sun 12:29:05 PM 44.2297 -74.6536 254° West 387 445 24,500 1,488 Climbing Boston Center
Sun 12:30:05 PM 44.2017 -74.8033 255° West 392 451 26,000 1,339 Climbing Boston Center
Sun 12:31:06 PM 44.1756 -74.9528 256° West 398 458 27,200 1,109 Climbing Boston Center
Sun 12:32:04 PM 44.1450 -75.1047 254° West 403 464 28,200 1,017 Climbing Boston Center
Sun 12:33:04 PM 44.1164 -75.2597 256° West 414 476 29,200 984 Climbing Boston Center
Sun 12:34:06 PM 44.0853 -75.4172 255° West 414 476 30,200 1,000 Climbing Boston Center
Sun 12:35:04 PM 44.0539 -75.5747 255° West 419 482 31,200 1,017 Climbing Boston Center
Sun 12:36:04 PM 44.0244 -75.7378 256° West 430 495 32,200 1,041 Climbing Boston Center
Sun 12:37:05 PM 43.9906 -75.8947 253° West 430 495 33,300 1,033 Climbing Boston Center
Sun 12:38:06 PM 43.9586 -76.0514 254° West 430 495 34,300 1,008 Climbing Boston Center
Sun 12:39:04 PM 43.9431 -76.2119 262° West 430 495 35,300 1,008 Climbing Boston Center
Sun 12:40:05 PM 43.9272 -76.3725 262° West 425 489 36,300 893 Climbing Boston Center
Sun 12:41:05 PM 43.9133 -76.5303 263° West 425 489 37,100 618 Climbing Boston Center
Sun 12:42:50 PM 43.8833 -76.7667 260° West 410 472 38,000 327 Climbing Toronto Center
Sun 12:43:50 PM 43.8667 -76.9500 263° West 420 483 38,000  Level Toronto Center
Sun 12:44:50 PM 43.8333 -77.1167 255° West 430 495 38,000  Level Toronto Center
Sun 12:45:50 PM 43.8167 -77.2833 262° West 430 495 38,000  Level Toronto Center
Sun 12:46:50 PM 43.8167 -77.4333 270° West 440 506 38,000  Level Toronto Center
Sun 12:47:50 PM 43.8000 -77.6000 262° West 440 506 38,000  Level Toronto Center
Sun 12:48:50 PM 43.7833 -77.7667 262° West 440 506 38,000  Level Toronto Center
Sun 12:49:50 PM 43.7667 -77.9167 261° West 430 495 38,000  Level Toronto Center
Sun 12:50:50 PM 43.7333 -78.0833 255° West 430 495 38,000  Level Toronto Center
Sun 12:51:50 PM 43.7167 -78.2500 262° West 420 483 38,000  Level Toronto Center
Sun 12:52:50 PM 43.7000 -78.4167 262° West 420 483 38,000  Level Toronto Center
Sun 12:53:50 PM 43.7000 -78.5667 270° West 420 483 38,000  Level Toronto Center
Sun 12:54:50 PM 43.6833 -78.7333 262° West 420 483 38,000  Level Toronto Center
Sun 12:55:50 PM 43.6667 -78.9000 262° West 420 483 38,000  Level Toronto Center
Sun 12:56:50 PM 43.6333 -79.0500 253° West 420 483 38,000  Level Toronto Center
Sun 12:57:50 PM 43.6167 -79.2167 262° West 420 483 38,000  Level Toronto Center
Sun 12:58:50 PM 43.6000 -79.3500 260° West 420 483 38,000  Level Toronto Center
Sun 12:59:50 PM 43.5667 -79.5167 255° West 420 483 38,000  Level Toronto Center
Sun 01:00:50 PM 43.5500 -79.6833 262° West 430 495 38,000  Level Toronto Center
Sun 01:01:50 PM 43.5333 -79.8333 261° West 420 483 38,000  Level Toronto Center
Sun 01:02:50 PM 43.5167 -80.0000 262° West 420 483 38,000  Level Toronto Center
Sun 01:03:50 PM 43.5000 -80.1667 262° West 420 483 38,000  Level Toronto Center
Sun 01:04:50 PM 43.4667 -80.3167 253° West 420 483 38,000  Level Toronto Center
Sun 01:05:50 PM 43.4500 -80.4833 262° West 420 483 38,000  Level Toronto Center
Sun 01:06:50 PM 43.4333 -80.6500 262° West 420 483 38,000  Level Toronto Center
Sun 01:07:50 PM 43.4167 -80.8000 261° West 420 483 38,000  Level Toronto Center
Sun 01:08:50 PM 43.3833 -80.9667 255° West 420 483 38,000  Level Toronto Center
Sun 01:09:50 PM 43.3500 -81.1167 253° West 430 495 38,000  Level Toronto Center
Sun 01:10:50 PM 43.3333 -81.2833 262° West 430 495 38,000  Level Toronto Center
Sun 01:11:50 PM 43.3167 -81.4500 262° West 430 495 38,000  Level Toronto Center
Sun 01:12:50 PM 43.3000 -81.6000 261° West 430 495 38,000  Level Toronto Center
Sun 01:13:50 PM 43.2667 -81.7667 255° West 430 495 38,000  Level Toronto Center
Sun 01:14:50 PM 43.2333 -81.9167 253° West 420 483 38,000  Level Toronto Center
Sun 01:15:50 PM 43.2167 -82.0833 262° West 420 483 38,000  Level Toronto Center
Sun 01:16:50 PM 43.2000 -82.2167 260° West 420 483 38,000  Level Toronto Center
Sun 01:17:50 PM 43.1667 -82.4000 256° West 420 483 38,000  Level Toronto Center
Sun 01:18:39 PM 43.1650 -82.5244 269° West 428 493 38,000  Level Cleveland Center
Sun 01:19:39 PM 43.1392 -82.6800 257° West 428 493 38,000  Level Cleveland Center
Sun 01:20:39 PM 43.1156 -82.8328 258° West 428 493 38,000 -50 Level Cleveland Center
Sun 01:21:39 PM 43.0917 -82.9828 258° West 428 493 37,900 -550 Descending Cleveland Center
Sun 01:22:39 PM 43.0656 -83.1353 257° West 423 487 36,900 -1,000 Descending Cleveland Center
Sun 01:23:39 PM 43.0436 -83.2764 258° West 408 470 35,900 -1,000 Descending Cleveland Center
Sun 01:24:39 PM 43.0214 -83.4172 258° West 397 457 34,900 -1,000 Descending Cleveland Center
Sun 01:25:39 PM 42.9992 -83.5556 258° West 397 457 33,900 -1,000 Descending Cleveland Center
Sun 01:26:39 PM 42.9722 -83.7044 256° West 397 457 32,900 -1,000 Descending Cleveland Center
Sun 01:27:39 PM 42.9556 -83.8569 262° West 403 464 31,900 -1,000 Descending Cleveland Center
Sun 01:28:39 PM 42.9406 -84.0178 263° West 419 482 30,900 -1,000 Descending Cleveland Center
Sun 01:29:39 PM 42.9231 -84.1786 262° West 431 496 29,900 -1,050 Descending Cleveland Center
Sun 01:30:39 PM 42.9050 -84.3506 262° West 431 496 28,800 -957 Descending Cleveland Center
Sun 01:31:13 PM 42.9031 -84.4128 268° West 427 491 28,400 -505 Descending Chicago Center
Sun 01:32:14 PM 42.8836 -84.6025 262° West 423 487 28,000 -195 Descending Chicago Center
Sun 01:33:16 PM 42.8664 -84.7603 262° West 422 486 28,000  Level Chicago Center
Sun 01:34:18 PM 42.8472 -84.9192 261° West 425 489 28,000  Level Chicago Center
Sun 01:35:20 PM 42.8194 -85.0725 256° West 420 483 28,000 -387 Level Chicago Center
Sun 01:36:22 PM 42.7944 -85.2256 258° West 415 478 27,200 -968 Descending Chicago Center
Sun 01:37:24 PM 42.7678 -85.3744 256° West 409 471 26,000 -1,161 Descending Chicago Center
Sun 01:38:26 PM 42.7425 -85.5222 257° West 403 464 24,800 -1,268 Descending Chicago Center
Sun 01:39:27 PM 42.7114 -85.7011 257° West 403 464 23,400 -1,268 Descending Chicago Center
Sun 01:40:29 PM 42.6853 -85.8456 256° West 395 455 22,200 -1,210 Descending Chicago Center
Sun 01:41:31 PM 42.6608 -85.9875 257° West 386 444 20,900 -1,065 Descending Chicago Center
Sun 01:42:33 PM 42.6356 -86.1300 256° West 385 443 20,000 -435 Descending Chicago Center
Sun 01:43:35 PM 42.6106 -86.2700 256° West 380 437 20,000  Level Chicago Center
Sun 01:44:37 PM 42.5839 -86.4094 255° West 383 441 20,000 -439 Level Chicago Center
Sun 01:45:38 PM 42.5592 -86.5503 257° West 385 443 19,100 -1,756 Descending Chicago Center
Sun 01:46:40 PM 42.5339 -86.6897 256° West 381 438 16,400 -2,758 Descending Chicago Center
Sun 01:47:42 PM 42.5058 -86.8544 257° West 376 433 13,400 -2,419 Descending Chicago Center
Sun 01:48:44 PM 42.4814 -86.9819 255° West 359 413 11,400 -1,610 Descending Chicago Center
Sun 01:49:45 PM 42.4561 -87.1033 254° West 341 392 10,100 -780 Descending Chicago Center
Sun 01:50:47 PM 42.4269 -87.2108 250° West 301 346 9,800 -532 Descending Chicago Center
Sun 01:51:49 PM 42.3867 -87.2864 234° Southwest 284 327 9,000 -387 Descending Chicago Center
Sun 01:52:51 PM 42.3056 -87.2794 176° South 288 331 9,000 -341 Level Chicago Center
Sun 01:53:52 PM 42.2267 -87.2939 188° South 299 344 8,300 -976 Descending Chicago Center
Sun 01:54:54 PM 42.1381 -87.3247 194° South 277 319 7,000 -629 Descending Chicago Center
Sun 01:55:56 PM 42.0628 -87.3489 193° South 279 321 7,000  Level Chicago Center
Sun 01:56:57 PM 41.9972 -87.3742 196° South 252 290 7,000  Level Chicago Center
Sun 01:57:59 PM 41.9822 -87.4525 256° West 227 261 7,000 -576 Level Chicago Center
Sun 01:59:02 PM 41.9819 -87.5350 270° West 222 255 5,800 -1,200 Descending Chicago Center
Sun 02:00:04 PM 41.9828 -87.6181 271° West 225 259 4,500 -1,210 Descending Chicago Center
Sun 02:01:06 PM 41.9850 -87.7092 272° West 217 250 3,300 -1,024 Descending Chicago Center
Sun 02:02:07 PM 41.9844 -87.7775 269° West 202 232 2,400 -683 Descending Chicago Center
Sun 02:03:09 PM 41.9850 -87.8336 271° West 181 208 1,900 -532 Descending Chicago Center
Sun 02:04:11 PM 41.9853 -87.8758 271° West 161 185 1,300 -581 Descending Chicago Center
Sun 02:06:00 PM 41.9667 -87.9000 206° Southwest  Level FlightAware Approximate

Login

Don't have an account? Register now (free) for customized features, flight alerts, and more!